1956 Tropical Low NOT_NAMED (1956028S10122)


IBTrACS version v04r00. Visit IBTrACS website for data access.
Please direct all questions to the IBTrACS Q and A forum

Storm track - Intensity - Wind Radii - Intensity Data - Source Data - All data

Summary Information

Storm ID 1956028S10122
Start Jan 27 23Z
Max Intensity 980 mb (Feb 2 01Z)
End Feb 5 23Z
ATCF IDs ,SH151956
Track status Best track data.

Storm track plot

Map of storm track

Intensity plots

Map of storm track

Radial wind information

No radial wind information for this storm


Position and Intensity Table

BASIN ISO_TIME_________ NATURE LAT LON WMO PRES BOM PRES
degrees north degrees east mb mb
SI 1956-01-27 23:00:00 NR -10.20 122.10
SI 1956-01-28 00:00:00 TS -10.20 122.02
SI 01:00:00 TS -10.19 121.92
SI 03:00:00 TS -10.22 121.81
SI 06:00:00 TS -10.28 121.66
SI 09:00:00 TS -10.35 121.54
SI 11:00:00 TS -10.40 121.47
SI 12:00:00 TS -10.44 121.44
SI 15:00:00 TS -10.57 121.31
SI 18:00:00 TS -10.71 121.18
SI 21:00:00 TS -10.83 121.08
SI 23:00:00 TS -10.89 121.01
SI 1956-01-29 00:00:00 TS -10.93 120.97
SI 01:00:00 TS -10.96 120.92
SI 03:00:00 TS -11.03 120.83
SI 06:00:00 TS -11.11 120.70
SI 09:00:00 TS -11.17 120.56
SI 11:00:00 TS -11.22 120.47
SI 12:00:00 TS -11.24 120.43
SI 15:00:00 TS -11.32 120.30
SI 18:00:00 TS -11.43 120.15
SI 21:00:00 TS -11.56 120.00
SI 23:00:00 TS -11.66 119.88
SI 1956-01-30 00:00:00 TS -11.72 119.80
SI 01:00:00 TS -11.79 119.71
SI 03:00:00 TS -11.94 119.51
SI 06:00:00 TS -12.20 119.17
SI 09:00:00 TS -12.49 118.83
SI 11:00:00 TS -12.70 118.60
SI 12:00:00 TS -12.80 118.49
SI 15:00:00 TS -13.12 118.16
SI 18:00:00 TS -13.44 117.84
SI 21:00:00 TS -13.75 117.51
SI 23:00:00 TS -13.97 117.29
SI 1956-01-31 00:00:00 TS -14.08 117.17
SI 01:00:00 TS -14.20 117.05
SI 03:00:00 TS -14.40 116.81
SI 06:00:00 TS -14.69 116.42
SI 09:00:00 TS -14.98 116.03
SI 11:00:00 TS -15.18 115.77
SI 12:00:00 TS -15.27 115.64
SI 15:00:00 TS -15.53 115.22
SI 18:00:00 TS -15.79 114.78
SI 21:00:00 TS -16.05 114.32
SI 23:00:00 TS -16.23 113.99
SI 1956-02-01 00:00:00 TS -16.32 113.82
SI 01:00:00 TS -16.41 113.65 992 992
SI 03:00:00 TS -16.60 113.28
SI 06:00:00 TS -16.90 112.71
SI 09:00:00 TS -17.22 112.10
SI 11:00:00 TS -17.44 111.69
SI 12:00:00 TS -17.55 111.48
SI 15:00:00 TS -17.88 110.82
SI 18:00:00 TS -18.21 110.17
SI 21:00:00 TS -18.53 109.54
SI 23:00:00 TS -18.72 109.15
SI 1956-02-02 00:00:00 TS -18.81 108.99
SI 01:00:00 TS -18.89 108.85 980 980
SI 03:00:00 TS -18.99 108.59
SI 06:00:00 TS -19.11 108.23
SI 09:00:00 TS -19.21 107.86
SI 11:00:00 TS -19.28 107.63
SI 12:00:00 TS -19.33 107.51
SI 15:00:00 TS -19.50 107.15
SI 18:00:00 TS -19.69 106.82
SI 21:00:00 TS -19.83 106.50
SI 23:00:00 TS -19.91 106.32
SI 1956-02-03 00:00:00 TS -19.94 106.24
SI 01:00:00 TS -19.98 106.18 982 982
SI 03:00:00 TS -20.04 106.06
SI 06:00:00 TS -20.12 105.92
SI 09:00:00 TS -20.19 105.80
SI 11:00:00 TS -20.24 105.72
SI 12:00:00 TS -20.26 105.68
SI 15:00:00 TS -20.36 105.52
SI 18:00:00 TS -20.46 105.35
SI 21:00:00 TS -20.56 105.19
SI 23:00:00 TS -20.62 105.10
SI 1956-02-04 00:00:00 TS -20.65 105.08
SI 01:00:00 TS -20.68 105.07
SI 03:00:00 TS -20.79 104.92
SI 06:00:00 TS -21.01 104.61
SI 09:00:00 TS -21.24 104.30
SI 11:00:00 TS -21.41 104.10
SI 12:00:00 TS -21.50 104.00
SI 15:00:00 TS -21.79 103.72
SI 18:00:00 TS -22.09 103.46
SI 21:00:00 TS -22.36 103.23
SI 23:00:00 TS -22.52 103.12
SI 1956-02-05 00:00:00 TS -22.59 103.09
SI 03:00:00 TS -22.77 103.09
SI 06:00:00 TS -22.89 103.19
SI 09:00:00 TS -22.96 103.37
SI 11:00:00 TS -22.99 103.51
SI 12:00:00 TS -23.01 103.59
SI 15:00:00 TS -23.04 103.84
SI 18:00:00 TS -23.06 104.11
SI 21:00:00 NR -23.02 104.40
SI 23:00:00 NR -23.00 104.60

Source Information

Agency Information
USA bsh151956.txt
TOKYO
CMA
HKO
NEWDELHI
REUNION
BOM IDCKMSTM0S.csv:Line=2086:unnamed
NADI
WELLINGTON
DS824 s_hem.dat:666:15S
TD9636 cons_worldwide_trop_cyclone_18710101-19891231-006:Line=4480
TD9635
NEUMANN
MLC

All available IBTrACS Data

SEASON BASIN SUBBASIN ISO_TIME_________ NATURE LAT LON WMO PRES WMO AGENCY DIST2LAND LANDFALL IFLAG USA AGENCY USA ATCF_ID USA LAT USA LON USA SSHS BOM LAT BOM LON BOM PRES BOM PRES_METHOD DS824 LAT DS824 LON DS824 STAGE TD9636 LAT TD9636 LON TD9636 STAGE STORM SPEED STORM DIR
Year degrees north degrees east mb km km degrees north degrees east 1 degrees north degrees east mb degrees north degrees east degrees north degrees east kts degrees
1956 SI WA 1956-01-27 23:00:00 NR -10.20 122.10 144 133 __________O___ -1 -10.20 122.10 7 5 267
1956 SI WA 1956-01-28 00:00:00 TS -10.20 122.02 133 122 O________OP___ jtwc_sh SH151956 -10.20 122.00 -1 -10.20 122.00 TC -10.21 122.05 7 5 273
1956 SI WA 01:00:00 TS -10.19 121.92 bom 122 111 P_____O__PP___ SH151956 -10.22 121.94 -1 -10.00 121.60 -10.22 121.94 TC -10.22 121.99 7 4 265
1956 SI WA 03:00:00 TS -10.22 121.81 111 101 P_____P__PP___ SH151956 -10.26 121.84 -1 -10.09 121.54 -10.26 121.84 TC -10.24 121.89 7 3 250
1956 SI WA 06:00:00 TS -10.28 121.66 104 83 O_____P__OP___ jtwc_sh SH151956 -10.30 121.70 -1 -10.24 121.46 -10.30 121.70 TC -10.28 121.74 7 3 245
1956 SI WA 09:00:00 TS -10.35 121.54 83 83 P_____P__PP___ SH151956 -10.33 121.60 -1 -10.38 121.38 -10.33 121.60 TC -10.34 121.59 7 3 237
1956 SI WA 11:00:00 TS -10.40 121.47 88 79 P_____P__PO___ SH151956 -10.37 121.54 -1 -10.47 121.32 -10.37 121.54 TC -10.40 121.50 7 3 230
1956 SI WA 12:00:00 TS -10.44 121.44 79 73 O_____P__OP___ jtwc_sh SH151956 -10.40 121.50 -1 -10.51 121.29 -10.40 121.50 TC -10.43 121.46 7 4 225
1956 SI WA 15:00:00 TS -10.57 121.31 79 70 P_____P__PP___ SH151956 -10.54 121.35 -1 -10.64 121.21 -10.54 121.35 TC -10.55 121.33 7 4 222
1956 SI WA 18:00:00 TS -10.71 121.18 78 78 O_____P__OP___ jtwc_sh SH151956 -10.70 121.20 -1 -10.76 121.12 -10.70 121.20 TC -10.69 121.21 7 3 221
1956 SI WA 21:00:00 TS -10.83 121.08 80 80 P_____P__PP___ SH151956 -10.81 121.10 -1 -10.87 121.03 -10.81 121.10 TC -10.82 121.09 7 3 222
1956 SI WA 23:00:00 TS -10.89 121.01 84 84 P_____P__PO___ SH151956 -10.87 121.04 -1 -10.94 120.96 -10.87 121.04 TC -10.90 121.00 7 3 228
1956 SI WA 1956-01-29 00:00:00 TS -10.93 120.97 84 80 O_____P__OP___ jtwc_sh SH151956 -10.90 121.00 -1 -10.97 120.93 -10.90 121.00 TC -10.93 120.95 7 3 231
1956 SI WA 01:00:00 TS -10.96 120.92 bom 89 84 P_____O__PP___ SH151956 -10.94 120.96 -1 -11.00 120.90 -10.94 120.96 TC -10.96 120.90 7 3 233
1956 SI WA 03:00:00 TS -11.03 120.83 84 84 P_____P__PP___ SH151956 -11.01 120.86 -1 -11.06 120.83 -11.01 120.86 TC -11.01 120.80 7 3 236
1956 SI WA 06:00:00 TS -11.11 120.70 92 90 O_____P__OP___ jtwc_sh SH151956 -11.10 120.70 -1 -11.14 120.73 -11.10 120.70 TC -11.08 120.65 7 3 241
1956 SI WA 09:00:00 TS -11.17 120.56 101 100 P_____P__PP___ SH151956 -11.15 120.55 -1 -11.21 120.62 -11.15 120.55 TC -11.15 120.50 7 3 244
1956 SI WA 11:00:00 TS -11.22 120.47 100 100 P_____P__PO___ SH151956 -11.18 120.45 -1 -11.26 120.54 -11.18 120.45 TC -11.20 120.40 7 3 243
1956 SI WA 12:00:00 TS -11.24 120.43 101 101 O_____P__OP___ jtwc_sh SH151956 -11.20 120.40 -1 -11.29 120.49 -11.20 120.40 TC -11.22 120.37 7 3 238
1956 SI WA 15:00:00 TS -11.32 120.30 114 114 P_____P__PP___ SH151956 -11.28 120.25 -1 -11.38 120.35 -11.28 120.25 TC -11.28 120.27 7 3 236
1956 SI WA 18:00:00 TS -11.43 120.15 127 127 O_____P__OP___ jtwc_sh SH151956 -11.40 120.10 -1 -11.48 120.19 -11.40 120.10 TC -11.36 120.17 7 4 231
1956 SI WA 21:00:00 TS -11.56 120.00 155 155 P_____P__PP___ SH151956 -11.53 119.98 -1 -11.60 120.00 -11.53 119.98 TC -11.48 120.03 7 4 230
1956 SI WA 23:00:00 TS -11.66 119.88 169 169 P_____P__PO___ SH151956 -11.64 119.87 -1 -11.69 119.86 -11.64 119.87 TC -11.60 119.90 7 5 230
1956 SI WA 1956-01-30 00:00:00 TS -11.72 119.80 173 173 O_____P__OP___ jtwc_sh SH151956 -11.70 119.80 -1 -11.74 119.78 -11.70 119.80 TC -11.67 119.81 7 6 232
1956 SI WA 01:00:00 TS -11.79 119.71 bom 187 187 P_____O__PP___ SH151956 -11.77 119.71 -1 -11.80 119.70 -11.77 119.71 TC -11.75 119.71 7 7 233
1956 SI WA 03:00:00 TS -11.94 119.51 205 205 P_____P__PP___ SH151956 -11.92 119.48 -1 -11.93 119.53 -11.92 119.48 TC -11.93 119.49 7 8 232
1956 SI WA 06:00:00 TS -12.20 119.17 249 249 O_____P__OP___ jtwc_sh SH151956 -12.20 119.10 -1 -12.15 119.25 -12.20 119.10 TC -12.24 119.13 7 9 230
1956 SI WA 09:00:00 TS -12.49 118.83 299 299 P_____P__PP___ SH151956 -12.53 118.74 -1 -12.39 118.93 -12.53 118.74 TC -12.57 118.75 7 9 228
1956 SI WA 11:00:00 TS -12.70 118.60 329 329 P_____P__PO___ SH151956 -12.78 118.51 -1 -12.56 118.71 -12.78 118.51 TC -12.80 118.50 7 9 226
1956 SI WA 12:00:00 TS -12.80 118.49 345 345 O_____P__OP___ jtwc_sh SH151956 -12.90 118.40 -1 -12.65 118.60 -12.90 118.40 TC -12.91 118.40 7 9 225
1956 SI WA 15:00:00 TS -13.12 118.16 391 391 P_____P__PP___ SH151956 -13.26 118.09 -1 -12.92 118.25 -13.26 118.09 TC -13.23 118.11 7 9 225
1956 SI WA 18:00:00 TS -13.44 117.84 437 437 O_____P__OP___ jtwc_sh SH151956 -13.60 117.80 -1 -13.21 117.88 -13.60 117.80 TC -13.56 117.82 7 9 225
1956 SI WA 21:00:00 TS -13.75 117.51 491 491 P_____P__PP___ SH151956 -13.91 117.51 -1 -13.50 117.51 -13.91 117.51 TC -13.89 117.52 7 9 225
1956 SI WA 23:00:00 TS -13.97 117.29 519 519 P_____P__PO___ SH151956 -14.10 117.31 -1 -13.70 117.25 -14.10 117.31 TC -14.10 117.30 7 9 225
1956 SI WA 1956-01-31 00:00:00 TS -14.08 117.17 534 534 O_____P__OP___ jtwc_sh SH151956 -14.20 117.20 -1 -13.80 117.13 -14.20 117.20 TC -14.21 117.18 7 10 224
1956 SI WA 01:00:00 TS -14.20 117.05 bom 548 548 P_____O__PP___ SH151956 -14.30 117.08 -1 -13.90 117.00 -14.30 117.08 TC -14.31 117.06 7 10 229
1956 SI WA 03:00:00 TS -14.40 116.81 582 582 P_____P__PP___ SH151956 -14.50 116.81 -1 -14.08 116.78 -14.50 116.81 TC -14.52 116.81 7 9 232
1956 SI WA 06:00:00 TS -14.69 116.42 630 629 O_____P__OP___ jtwc_sh SH151956 -14.80 116.40 -1 -14.34 116.46 -14.80 116.40 TC -14.82 116.41 7 10 232
1956 SI WA 09:00:00 TS -14.98 116.03 630 611 P_____P__PP___ SH151956 -15.11 116.01 -1 -14.61 116.13 -15.11 116.01 TC -15.11 115.99 7 10 232
1956 SI WA 11:00:00 TS -15.18 115.77 611 602 P_____P__PO___ SH151956 -15.31 115.74 -1 -14.79 115.90 -15.31 115.74 TC -15.30 115.70 7 10 233
1956 SI WA 12:00:00 TS -15.27 115.64 604 589 O_____P__OP___ jtwc_sh SH151956 -15.40 115.60 -1 -14.89 115.78 -15.40 115.60 TC -15.39 115.56 7 10 236
1956 SI WA 15:00:00 TS -15.53 115.22 592 573 P_____P__PP___ SH151956 -15.66 115.16 -1 -15.17 115.42 -15.66 115.16 TC -15.64 115.14 7 10 238
1956 SI WA 18:00:00 TS -15.79 114.78 573 564 O_____P__OP___ jtwc_sh SH151956 -15.90 114.70 -1 -15.46 115.04 -15.90 114.70 TC -15.89 114.70 7 10 239
1956 SI WA 21:00:00 TS -16.05 114.32 563 563 P_____P__PP___ SH151956 -16.15 114.21 -1 -15.77 114.62 -16.15 114.21 TC -16.13 114.23 7 11 240
1956 SI WA 23:00:00 TS -16.23 113.99 568 564 P_____P__PO___ SH151956 -16.32 113.87 -1 -15.98 114.32 -16.32 113.87 TC -16.30 113.90 7 11 241
1956 SI WA 1956-02-01 00:00:00 TS -16.32 113.82 570 566 O_____P__OP___ jtwc_sh SH151956 -16.40 113.70 -1 -16.09 114.16 -16.40 113.70 TC -16.39 113.73 7 11 241
1956 SI WA 01:00:00 TS -16.41 113.65 992 bom 566 563 P_____O__PP___ SH151956 -16.48 113.52 -1 -16.20 114.00 992 -16.48 113.52 TC -16.47 113.55 7 12 242
1956 SI WA 03:00:00 TS -16.60 113.28 569 566 P_____P__PP___ SH151956 -16.64 113.16 -1 -16.46 113.63 -16.64 113.16 TC -16.65 113.18 7 12 242
1956 SI WA 06:00:00 TS -16.90 112.71 575 558 O_____P__OP___ jtwc_sh SH151956 -16.90 112.60 -1 -16.86 113.02 -16.90 112.60 TC -16.93 112.61 7 13 241
1956 SI WA 09:00:00 TS -17.22 112.10 562 553 P_____P__PP___ SH151956 -17.19 112.01 -1 -17.27 112.38 -17.19 112.01 TC -17.21 112.01 7 13 241
1956 SI WA 11:00:00 TS -17.44 111.69 557 547 P_____P__PO___ SH151956 -17.40 111.61 -1 -17.55 111.94 -17.40 111.61 TC -17.40 111.60 7 14 241
1956 SI WA 12:00:00 TS -17.55 111.48 557 548 O_____P__OP___ jtwc_sh SH151956 -17.50 111.40 -1 -17.68 111.72 -17.50 111.40 TC -17.51 111.39 7 14 242
1956 SI WA 15:00:00 TS -17.88 110.82 558 556 P_____P__PP___ SH151956 -17.80 110.75 -1 -18.09 111.05 -17.80 110.75 TC -17.84 110.73 7 14 242
1956 SI WA 18:00:00 TS -18.21 110.17 573 572 O_____P__OP___ jtwc_sh SH151956 -18.10 110.10 -1 -18.47 110.39 -18.10 110.10 TC -18.16 110.08 7 14 242
1956 SI WA 21:00:00 TS -18.53 109.54 604 597 P_____P__PP___ SH151956 -18.43 109.46 -1 -18.81 109.77 -18.43 109.46 TC -18.44 109.47 7 13 242
1956 SI WA 23:00:00 TS -18.72 109.15 615 615 P_____P__PO___ SH151956 -18.62 109.07 -1 -19.02 109.37 -18.62 109.07 TC -18.60 109.10 7 12 241
1956 SI WA 1956-02-02 00:00:00 TS -18.81 108.99 625 625 O_____P__OP___ jtwc_sh SH151956 -18.70 108.90 -1 -19.11 109.18 -18.70 108.90 TC -18.65 108.94 7 10 239
1956 SI WA 01:00:00 TS -18.89 108.85 980 bom 637 637 P_____O__PP___ SH151956 -18.76 108.75 -1 -19.20 109.00 980 4 -18.76 108.75 TC -18.70 108.79 7 9 244
1956 SI WA 03:00:00 TS -18.99 108.59 649 649 P_____P__PP___ SH151956 -18.83 108.51 -1 -19.34 108.68 -18.83 108.51 TC -18.77 108.51 7 8 249
1956 SI WA 06:00:00 TS -19.11 108.23 680 680 O_____P__OP___ jtwc_sh SH151956 -18.90 108.20 -1 -19.51 108.23 -18.90 108.20 TC -18.85 108.14 7 7 252
1956 SI WA 09:00:00 TS -19.21 107.86 703 703 P_____P__PP___ SH151956 -18.98 107.85 -1 -19.64 107.83 -18.98 107.85 TC -18.93 107.81 7 7 253
1956 SI WA 11:00:00 TS -19.28 107.63 723 723 P_____P__PO___ SH151956 -19.05 107.62 -1 -19.70 107.58 -19.05 107.62 TC -19.00 107.60 7 7 251
1956 SI WA 12:00:00 TS -19.33 107.51 732 732 O_____P__OP___ jtwc_sh SH151956 -19.10 107.50 -1 -19.73 107.46 -19.10 107.50 TC -19.07 107.47 7 8 244
1956 SI WA 15:00:00 TS -19.50 107.15 748 748 P_____P__PP___ SH151956 -19.34 107.14 -1 -19.81 107.13 -19.34 107.14 TC -19.29 107.10 7 7 241
1956 SI WA 18:00:00 TS -19.69 106.82 775 775 O_____P__OP___ jtwc_sh SH151956 -19.60 106.80 -1 -19.87 106.82 -19.60 106.80 TC -19.54 106.76 7 7 242
1956 SI WA 21:00:00 TS -19.83 106.50 799 795 P_____P__PP___ SH151956 -19.77 106.46 -1 -19.92 106.54 -19.77 106.46 TC -19.77 106.46 7 6 244
1956 SI WA 23:00:00 TS -19.91 106.32 814 814 P_____P__PO___ SH151956 -19.86 106.27 -1 -19.96 106.37 -19.86 106.27 TC -19.90 106.30 7 5 245
1956 SI WA 1956-02-03 00:00:00 TS -19.94 106.24 823 819 O_____P__OP___ jtwc_sh SH151956 -19.90 106.20 -1 -19.98 106.28 -19.90 106.20 TC -19.94 106.24 7 5 244
1956 SI WA 01:00:00 TS -19.98 106.18 982 bom 819 819 P_____O__PP___ SH151956 -19.94 106.14 -1 -20.00 106.20 982 -19.94 106.14 TC -19.98 106.19 7 4 241
1956 SI WA 03:00:00 TS -20.04 106.06 829 829 P_____P__PP___ SH151956 -20.01 106.06 -1 -20.05 106.04 -20.01 106.06 TC -20.04 106.11 7 3 239
1956 SI WA 06:00:00 TS -20.12 105.92 844 840 O_____P__OP___ jtwc_sh SH151956 -20.10 106.00 -1 -20.12 105.80 -20.10 106.00 TC -20.11 106.02 7 3 238
1956 SI WA 09:00:00 TS -20.19 105.80 850 850 P_____P__PP___ SH151956 -20.15 105.96 -1 -20.21 105.58 -20.15 105.96 TC -20.16 105.95 7 3 239
1956 SI WA 11:00:00 TS -20.24 105.72 860 856 P_____P__PO___ SH151956 -20.18 105.93 -1 -20.28 105.44 -20.18 105.93 TC -20.20 105.90 7 3 238
1956 SI WA 12:00:00 TS -20.26 105.68 856 856 O_____P__OP___ jtwc_sh SH151956 -20.20 105.90 -1 -20.31 105.37 -20.20 105.90 TC -20.23 105.86 7 3 237
1956 SI WA 15:00:00 TS -20.36 105.52 873 873 P_____P__PP___ SH151956 -20.29 105.77 -1 -20.42 105.16 -20.29 105.77 TC -20.30 105.75 7 4 237
1956 SI WA 18:00:00 TS -20.46 105.35 889 889 O_____P__OP___ jtwc_sh SH151956 -20.40 105.60 -1 -20.53 104.96 -20.40 105.60 TC -20.39 105.61 7 4 238
1956 SI WA 21:00:00 TS -20.56 105.19 896 896 P_____P__PP___ SH151956 -20.48 105.42 -1 -20.64 104.76 -20.48 105.42 TC -20.51 105.44 7 3 236
1956 SI WA 23:00:00 TS -20.62 105.10 906 906 P_____P__PO___ SH151956 -20.56 105.28 -1 -20.72 104.63 -20.56 105.28 TC -20.60 105.30 7 3 226
1956 SI WA 1956-02-04 00:00:00 TS -20.65 105.08 906 903 O_____P__OP___ jtwc_sh SH151956 -20.60 105.20 -1 -20.76 104.57 -20.60 105.20 TC -20.65 105.22 7 2 0
1956 SI WA 01:00:00 TS -20.68 105.07 bom 903 903 P_____O__PP___ SH151956 -20.65 105.11 -1 -20.80 104.50 -20.65 105.11 TC -20.70 105.13 7 4 226
1956 SI WA 03:00:00 TS -20.79 104.92 920 920 P________PP___ SH151956 -20.78 104.92 -1 -20.78 104.92 TC -20.82 104.94 7 7 233
1956 SI WA 06:00:00 TS -21.01 104.61 945 945 O________OP___ jtwc_sh SH151956 -21.00 104.60 -1 -21.00 104.60 TC -21.02 104.62 7 7 233
1956 SI WA 09:00:00 TS -21.24 104.30 971 969 P________PP___ SH151956 -21.23 104.29 -1 -21.23 104.29 TC -21.24 104.30 7 7 230
1956 SI WA 11:00:00 TS -21.41 104.10 988 988 P________PO___ SH151956 -21.41 104.09 -1 -21.41 104.09 TC -21.40 104.10 7 8 227
1956 SI WA 12:00:00 TS -21.50 104.00 996 996 O________OP___ jtwc_sh SH151956 -21.50 104.00 -1 -21.50 104.00 TC -21.49 103.99 7 8 222
1956 SI WA 15:00:00 TS -21.79 103.72 1022 1021 P________PP___ SH151956 -21.80 103.73 -1 -21.80 103.73 TC -21.78 103.68 7 8 220
1956 SI WA 18:00:00 TS -22.09 103.46 1039 1039 O________OP___ jtwc_sh SH151956 -22.10 103.50 -1 -22.10 103.50 TC -22.07 103.39 7 7 218
1956 SI WA 21:00:00 TS -22.36 103.23 1063 1061 P________PP___ SH151956 -22.37 103.26 -1 -22.37 103.26 TC -22.34 103.18 7 6 216
1956 SI WA 23:00:00 TS -22.52 103.12 1071 1068 P________PO___ SH151956 -22.53 103.14 -1 -22.53 103.14 TC -22.50 103.10 7 5 209
1956 SI WA 1956-02-05 00:00:00 TS -22.59 103.09 1068 1063 O________OP___ jtwc_sh SH151956 -22.60 103.10 -1 -22.60 103.10 TC -22.57 103.08 7 4 190
1956 SI WA 03:00:00 TS -22.77 103.09 1063 1051 P________PP___ SH151956 -22.78 103.09 -1 -22.78 103.09 TC -22.74 103.08 7 3 162
1956 SI WA 06:00:00 TS -22.89 103.19 1051 1029 O________OP___ jtwc_sh SH151956 -22.90 103.20 -1 -22.90 103.20 TC -22.87 103.18 7 3 127
1956 SI WA 09:00:00 TS -22.96 103.37 1029 1019 P________PP___ SH151956 -22.97 103.37 -1 -22.97 103.37 TC -22.96 103.36 7 4 109
1956 SI WA 11:00:00 TS -22.99 103.51 1019 1009 P________PO___ SH151956 -22.99 103.52 -1 -22.99 103.52 TC -23.00 103.50 7 4 101
1956 SI WA 12:00:00 TS -23.01 103.59 1009 989 O________OP___ jtwc_sh SH151956 -23.00 103.60 -1 -23.00 103.60 TC -23.01 103.58 7 5 99
1956 SI WA 15:00:00 TS -23.04 103.84 989 956 P________PP___ SH151956 -23.05 103.85 -1 -23.05 103.85 TC -23.04 103.83 7 5 97
1956 SI WA 18:00:00 TS -23.06 104.11 956 928 O________OP___ jtwc_sh SH151956 -23.10 104.10 -1 -23.10 104.10 TC -23.03 104.11 7 5 87
1956 SI WA 21:00:00 NR -23.02 104.40 928 908 __________P___ SH151956 -1 TC -23.02 104.40 7 6 83
1956 SI WA 23:00:00 NR -23.00 104.60 908 __________O___ SH151956 -1 TC -23.00 104.60 7 5 85